Time;durP1;ratioP1;P1;durP2;ratioP2;P2;SDS_P1;SDS_P2;PMS_P1;PMS_P2;Temp;Humidity;BMP_temperature;BMP_pressure;BME280_temperature;BME280_humidity;BME280_pressure;Samples;Min_cycle;Max_cycle;Signal;HPM_P1;HPM_P2
2023/12/07 00:00:16;;;;;;;1.23;0.87;;;2.30;99.90;;;;;;5036398;28;20458;-79
2023/12/07 00:02:43;;;;;;;0.97;0.90;;;2.30;99.90;;;;;;5036222;28;20447;-79
2023/12/07 00:05:11;;;;;;;3.70;2.00;;;2.30;99.90;;;;;;5036213;28;20935;-79
2023/12/07 00:07:38;;;;;;;0.90;0.90;;;2.30;99.90;;;;;;5035662;28;20485;-78
2023/12/07 00:10:06;;;;;;;1.47;0.53;;;2.30;99.90;;;;;;5036028;28;20805;-78
2023/12/07 00:12:32;;;;;;;0.90;0.90;;;2.30;99.90;;;;;;5036380;28;20451;-78
2023/12/07 00:14:59;;;;;;;0.70;0.57;;;2.40;99.90;;;;;;5036020;28;20438;-78
2023/12/07 00:17:26;;;;;;;1.10;1.10;;;2.30;99.90;;;;;;5035994;28;20501;-78
2023/12/07 00:19:53;;;;;;;2.30;1.47;;;2.30;99.90;;;;;;5035955;28;20473;-78
2023/12/07 00:22:22;;;;;;;0.40;0.40;;;2.20;99.90;;;;;;5036185;28;20832;-78
2023/12/07 00:24:49;;;;;;;3.23;1.00;;;2.20;99.90;;;;;;5035928;28;20447;-78
2023/12/07 00:27:15;;;;;;;5.10;1.23;;;2.20;99.90;;;;;;5036216;28;20574;-78
2023/12/07 00:29:42;;;;;;;1.13;1.03;;;2.20;99.90;;;;;;5035638;28;20447;-78
2023/12/07 00:32:09;;;;;;;2.87;0.77;;;2.30;99.90;;;;;;5035713;28;20446;-78
2023/12/07 00:34:36;;;;;;;2.77;0.70;;;2.30;99.90;;;;;;5035724;28;20443;-78
2023/12/07 00:37:03;;;;;;;1.47;1.07;;;2.30;99.90;;;;;;5035242;28;21018;-78
2023/12/07 00:39:31;;;;;;;3.90;1.00;;;2.30;99.90;;;;;;5035866;28;20442;-78
2023/12/07 00:41:58;;;;;;;3.23;1.00;;;2.30;99.90;;;;;;5035922;28;20817;-78
2023/12/07 00:44:24;;;;;;;3.17;1.10;;;2.30;99.90;;;;;;5037373;28;20450;-78
2023/12/07 00:46:51;;;;;;;1.43;1.33;;;2.30;99.90;;;;;;5036385;28;20821;-78
2023/12/07 00:49:18;;;;;;;1.20;1.10;;;2.40;99.90;;;;;;5036363;28;20442;-78
2023/12/07 00:51:44;;;;;;;1.50;1.20;;;2.40;99.90;;;;;;5036032;28;20450;-78
2023/12/07 00:54:11;;;;;;;5.30;0.97;;;2.40;99.90;;;;;;5036323;28;20449;-78
2023/12/07 00:56:39;;;;;;;4.37;1.20;;;2.30;99.90;;;;;;5036119;28;20478;-78
2023/12/07 00:59:06;;;;;;;0.63;0.63;;;2.30;99.90;;;;;;5036040;28;20447;-78
2023/12/07 01:01:33;;;;;;;0.70;0.60;;;2.30;99.90;;;;;;5035966;28;20538;-78
2023/12/07 01:04:00;;;;;;;4.13;0.53;;;2.40;99.90;;;;;;5035891;28;20443;-78
2023/12/07 01:06:27;;;;;;;2.40;0.93;;;2.30;99.90;;;;;;5035350;28;20996;-78
2023/12/07 01:08:54;;;;;;;0.83;0.83;;;2.30;99.90;;;;;;5035710;28;20791;-78
2023/12/07 01:11:21;;;;;;;1.00;0.90;;;2.30;99.90;;;;;;5035675;28;20447;-78
2023/12/07 01:13:49;;;;;;;1.10;1.00;;;2.20;99.90;;;;;;5035124;28;20450;-78
2023/12/07 01:16:16;;;;;;;1.47;1.17;;;2.30;99.90;;;;;;5035436;28;20473;-78
2023/12/07 01:18:42;;;;;;;1.17;1.07;;;2.30;99.90;;;;;;5036469;28;20947;-78
2023/12/07 01:21:09;;;;;;;1.50;0.70;;;2.30;99.90;;;;;;5034990;28;20935;-78
2023/12/07 01:23:36;;;;;;;1.03;1.03;;;2.20;99.90;;;;;;5035204;28;20443;-78
2023/12/07 01:26:02;;;;;;;4.17;1.83;;;2.20;99.90;;;;;;5035309;28;20471;-78
2023/12/07 01:28:29;;;;;;;2.53;1.70;;;2.30;99.90;;;;;;5035051;28;20447;-78
2023/12/07 01:30:57;;;;;;;0.97;0.97;;;2.20;99.90;;;;;;5035132;28;20844;-78
2023/12/07 01:33:24;;;;;;;0.90;0.70;;;2.20;99.90;;;;;;5035179;28;20443;-78
2023/12/07 01:35:51;;;;;;;1.90;0.77;;;2.20;99.90;;;;;;5034621;28;20466;-77
2023/12/07 01:38:17;;;;;;;2.30;1.83;;;2.10;99.90;;;;;;5034856;28;20493;-78
2023/12/07 01:40:44;;;;;;;1.47;1.13;;;2.10;99.90;;;;;;5035107;28;20443;-78
2023/12/07 01:43:11;;;;;;;0.97;0.70;;;2.00;99.90;;;;;;5034120;28;20442;-78
2023/12/07 01:45:37;;;;;;;0.77;0.70;;;2.00;99.90;;;;;;5034928;28;20442;-78
2023/12/07 01:48:06;;;;;;;0.63;0.63;;;1.90;99.90;;;;;;5034492;28;20443;-78
2023/12/07 01:50:34;;;;;;;2.47;0.73;;;1.90;99.90;;;;;;5034836;28;20809;-78
2023/12/07 01:53:03;;;;;;;4.17;1.53;;;1.80;99.90;;;;;;5034443;28;20438;-78
2023/12/07 01:55:31;;;;;;;1.37;1.27;;;1.80;99.90;;;;;;5034673;28;20457;-78
2023/12/07 01:57:59;;;;;;;1.00;1.00;;;1.70;99.90;;;;;;5034514;28;20481;-78
2023/12/07 02:00:27;;;;;;;1.43;1.23;;;1.70;99.90;;;;;;5034371;28;20971;-78
2023/12/07 02:02:54;;;;;;;0.60;0.60;;;1.70;99.90;;;;;;5034713;28;20442;-78
2023/12/07 02:05:23;;;;;;;2.53;1.03;;;1.60;99.90;;;;;;5034547;28;20815;-78
2023/12/07 02:07:50;;;;;;;1.80;0.60;;;1.70;99.90;;;;;;5034332;28;20792;-78
2023/12/07 02:10:19;;;;;;;5.83;1.03;;;1.60;99.90;;;;;;5034207;28;20480;-78
2023/12/07 02:12:47;;;;;;;2.90;0.70;;;1.60;99.90;;;;;;5034634;28;20447;-78
2023/12/07 02:15:14;;;;;;;1.07;0.83;;;1.70;99.90;;;;;;5035093;28;20455;-78
2023/12/07 02:17:50;;;;;;;0.60;0.60;;;1.70;99.90;;;;;;5034178;28;20490;-78
2023/12/07 02:20:25;;;;;;;0.40;0.40;;;1.70;99.90;;;;;;5034163;28;20427;-78
2023/12/07 02:22:55;;;;;;;6.10;0.63;;;1.70;99.90;;;;;;5034284;28;20434;-78
2023/12/07 02:25:27;;;;;;;0.77;0.77;;;1.80;99.90;;;;;;5035197;28;20897;-78
2023/12/07 02:27:55;;;;;;;0.80;0.57;;;1.90;99.90;;;;;;5034275;28;20411;-78
2023/12/07 02:30:22;;;;;;;0.90;0.70;;;1.90;99.90;;;;;;5033935;28;20446;-78
2023/12/07 02:32:49;;;;;;;0.70;0.70;;;1.90;99.90;;;;;;5033954;28;20450;-78
2023/12/07 02:35:16;;;;;;;0.77;0.50;;;1.90;99.90;;;;;;5034271;28;20442;-78
2023/12/07 02:37:46;;;;;;;0.80;0.80;;;2.00;99.90;;;;;;5034039;28;20514;-78
2023/12/07 02:40:17;;;;;;;0.50;0.50;;;1.90;99.90;;;;;;5034204;28;20432;-78
2023/12/07 02:42:44;;;;;;;3.67;0.70;;;1.90;99.90;;;;;;5034038;28;20438;-78
2023/12/07 02:45:13;;;;;;;0.60;0.60;;;1.90;99.90;;;;;;5034091;28;20443;-78
2023/12/07 02:47:40;;;;;;;1.37;1.27;;;1.90;99.90;;;;;;5033838;28;20471;-78
2023/12/07 02:50:08;;;;;;;2.33;0.90;;;1.90;99.90;;;;;;5034105;28;20446;-78
2023/12/07 02:52:35;;;;;;;1.83;1.60;;;1.90;99.90;;;;;;5034932;28;20446;-78
2023/12/07 02:55:02;;;;;;;2.30;1.67;;;1.90;99.90;;;;;;5041662;28;20450;-78
2023/12/07 02:57:30;;;;;;;1.03;0.70;;;1.90;99.90;;;;;;5044699;28;20486;-78
2023/12/07 02:59:57;;;;;;;1.33;1.27;;;1.90;99.90;;;;;;5044703;28;20516;-78
2023/12/07 03:02:25;;;;;;;3.80;1.70;;;1.80;99.90;;;;;;5040907;28;20541;-78
2023/12/07 03:04:52;;;;;;;0.67;0.67;;;1.80;99.90;;;;;;5039082;28;20446;-78
2023/12/07 03:07:18;;;;;;;0.80;0.80;;;1.90;99.90;;;;;;5037660;28;20474;-78
2023/12/07 03:09:45;;;;;;;0.40;0.40;;;1.80;99.90;;;;;;5039251;28;20446;-78
2023/12/07 03:12:12;;;;;;;3.00;0.50;;;1.90;99.90;;;;;;5038815;28;20445;-78
2023/12/07 03:14:38;;;;;;;2.53;0.77;;;1.90;99.90;;;;;;5037977;28;20443;-78
2023/12/07 03:17:05;;;;;;;1.13;0.90;;;1.80;99.90;;;;;;5037724;28;20463;-78
2023/12/07 03:19:33;;;;;;;1.63;1.10;;;1.80;99.90;;;;;;5037781;28;20442;-78
2023/12/07 03:22:00;;;;;;;1.67;1.57;;;1.80;99.90;;;;;;5037918;28;20419;-78
2023/12/07 03:24:26;;;;;;;0.90;0.70;;;1.80;99.90;;;;;;5037866;28;20454;-78
2023/12/07 03:26:53;;;;;;;4.80;1.20;;;1.70;99.90;;;;;;5037639;28;20458;-78
2023/12/07 03:29:20;;;;;;;4.40;1.30;;;1.70;99.90;;;;;;5037757;28;20442;-78
2023/12/07 03:31:47;;;;;;;1.97;0.73;;;1.70;99.90;;;;;;5037588;28;20826;-78
2023/12/07 03:34:15;;;;;;;2.30;1.33;;;1.60;99.90;;;;;;5037874;28;20450;-78
2023/12/07 03:36:43;;;;;;;1.40;0.83;;;1.50;99.90;;;;;;5037410;28;20514;-78
2023/12/07 03:39:10;;;;;;;0.83;0.83;;;1.50;99.90;;;;;;5037428;28;20486;-78
2023/12/07 03:41:37;;;;;;;0.70;0.70;;;1.40;99.90;;;;;;5037332;28;20478;-78
2023/12/07 03:44:04;;;;;;;3.77;2.10;;;1.40;99.90;;;;;;5037141;28;20827;-78
2023/12/07 03:46:31;;;;;;;0.70;0.70;;;1.30;99.90;;;;;;5037456;28;21006;-78
2023/12/07 03:48:57;;;;;;;1.90;0.80;;;1.20;99.90;;;;;;5036901;28;20947;-78
2023/12/07 03:51:24;;;;;;;1.87;1.07;;;1.20;99.90;;;;;;5037283;28;20451;-78
2023/12/07 03:53:52;;;;;;;1.00;0.60;;;1.20;99.90;;;;;;5037009;28;20454;-78
2023/12/07 03:56:25;;;;;;;1.17;1.17;;;1.00;99.90;;;;;;5038064;28;20466;-78
2023/12/07 03:58:52;;;;;;;0.93;0.90;;;0.90;99.90;;;;;;5037002;28;20481;-78
2023/12/07 04:01:22;;;;;;;2.27;1.63;;;0.90;99.90;;;;;;5037145;28;20454;-78
2023/12/07 04:03:49;;;;;;;3.20;1.20;;;0.90;99.90;;;;;;5037048;28;20481;-78
2023/12/07 04:06:16;;;;;;;7.60;0.77;;;0.90;99.90;;;;;;5035604;28;20502;-78
2023/12/07 04:08:43;;;;;;;2.23;1.00;;;0.80;99.90;;;;;;5036615;28;20473;-78
2023/12/07 04:11:11;;;;;;;1.43;0.93;;;0.80;99.90;;;;;;5036410;28;20944;-78
2023/12/07 04:13:38;;;;;;;0.80;0.80;;;0.80;99.90;;;;;;5036760;28;20888;-78
2023/12/07 04:16:05;;;;;;;1.13;1.10;;;0.80;99.90;;;;;;5036514;28;20470;-78
2023/12/07 04:18:32;;;;;;;1.00;0.90;;;0.80;99.90;;;;;;5036266;28;20489;-78
2023/12/07 04:20:59;;;;;;;1.10;0.50;;;0.70;99.90;;;;;;5036470;28;20454;-78
2023/12/07 04:23:26;;;;;;;1.90;0.83;;;0.70;99.90;;;;;;5036301;28;20821;-78
2023/12/07 04:25:53;;;;;;;1.33;0.80;;;0.60;99.90;;;;;;5036100;28;20467;-78
2023/12/07 04:28:21;;;;;;;5.40;1.07;;;0.60;99.90;;;;;;5037289;28;20439;-78
2023/12/07 04:30:48;;;;;;;0.50;0.50;;;0.60;99.90;;;;;;5036382;28;20457;-78
2023/12/07 04:33:14;;;;;;;3.07;1.17;;;0.60;99.90;;;;;;5035886;28;20791;-78
2023/12/07 04:35:41;;;;;;;3.67;0.90;;;0.60;99.90;;;;;;5036248;28;20449;-78
2023/12/07 04:38:08;;;;;;;1.77;1.57;;;0.60;99.90;;;;;;5036002;28;20490;-78
2023/12/07 04:40:35;;;;;;;0.57;0.50;;;0.60;99.90;;;;;;5036283;28;20443;-78
2023/12/07 04:43:01;;;;;;;0.80;0.57;;;0.60;99.90;;;;;;5035783;28;20940;-78
2023/12/07 04:45:29;;;;;;;1.83;1.20;;;0.50;99.90;;;;;;5036123;28;20438;-78
2023/12/07 04:47:57;;;;;;;5.50;2.53;;;0.50;99.90;;;;;;5035600;28;20944;-78
2023/12/07 04:50:24;;;;;;;2.23;0.87;;;0.60;99.90;;;;;;5035951;28;20446;-78
2023/12/07 04:52:50;;;;;;;0.50;0.47;;;0.50;99.90;;;;;;5035740;28;20447;-78
2023/12/07 04:55:17;;;;;;;1.30;1.20;;;0.50;99.90;;;;;;5036057;28;20452;-78
2023/12/07 04:57:44;;;;;;;2.30;1.10;;;0.60;99.90;;;;;;5035893;28;20557;-78
2023/12/07 05:00:13;;;;;;;0.60;0.60;;;0.50;99.90;;;;;;5035796;28;20446;-78
2023/12/07 05:02:41;;;;;;;2.23;1.73;;;0.60;99.90;;;;;;5036744;28;20489;-78
2023/12/07 05:05:08;;;;;;;5.13;0.90;;;0.50;99.90;;;;;;5037531;28;20842;-78
2023/12/07 05:07:35;;;;;;;0.50;0.50;;;0.50;99.90;;;;;;5036161;28;20486;-78
2023/12/07 05:10:03;;;;;;;1.93;0.97;;;0.50;99.90;;;;;;5040305;28;20454;-78
2023/12/07 05:12:29;;;;;;;2.00;1.13;;;0.50;99.90;;;;;;5038016;28;20461;-78
2023/12/07 05:14:56;;;;;;;0.60;0.60;;;0.50;99.90;;;;;;5035778;28;20451;-78
2023/12/07 05:17:23;;;;;;;1.07;0.83;;;0.50;99.90;;;;;;5034850;28;20467;-78
2023/12/07 05:19:51;;;;;;;1.80;1.53;;;0.50;99.90;;;;;;5035764;28;20480;-78
2023/12/07 05:22:18;;;;;;;0.87;0.60;;;0.50;99.90;;;;;;5035535;28;20850;-78
2023/12/07 05:24:44;;;;;;;1.13;1.13;;;0.50;99.90;;;;;;5035551;28;20847;-78
2023/12/07 05:27:11;;;;;;;1.13;0.77;;;0.50;99.90;;;;;;5035746;28;20466;-78
2023/12/07 05:29:38;;;;;;;1.20;1.20;;;0.50;99.90;;;;;;5035292;28;20447;-78
2023/12/07 05:32:06;;;;;;;1.10;1.10;;;0.50;99.90;;;;;;5035166;28;20473;-78
2023/12/07 05:34:33;;;;;;;3.87;0.80;;;0.50;99.90;;;;;;5035149;28;20450;-78
2023/12/07 05:37:07;;;;;;;6.13;0.93;;;0.50;99.90;;;;;;5092521;27;20575;-80
2023/12/07 05:39:34;;;;;;;1.07;1.07;;;0.50;99.90;;;;;;5092886;28;20436;-78
2023/12/07 05:42:01;;;;;;;1.37;0.83;;;0.50;99.90;;;;;;5092291;28;20804;-79
2023/12/07 05:44:28;;;;;;;1.27;0.60;;;0.50;99.90;;;;;;5093088;28;20447;-78
2023/12/07 05:46:54;;;;;;;1.03;1.03;;;0.50;99.90;;;;;;5092527;28;20459;-78
2023/12/07 05:49:22;;;;;;;1.17;0.53;;;0.50;99.90;;;;;;5092178;28;20972;-78
2023/12/07 05:51:49;;;;;;;1.37;0.90;;;0.50;99.90;;;;;;5092203;28;20453;-78
2023/12/07 05:54:17;;;;;;;3.70;1.07;;;0.50;99.90;;;;;;5091817;28;20509;-78
2023/12/07 05:56:44;;;;;;;0.70;0.70;;;0.50;99.90;;;;;;5092464;28;20486;-78
2023/12/07 05:59:11;;;;;;;1.27;1.13;;;0.40;99.90;;;;;;5091630;28;20454;-77
2023/12/07 06:01:38;;;;;;;3.43;0.63;;;0.50;99.90;;;;;;5092015;28;20448;-78
2023/12/07 06:04:04;;;;;;;2.20;1.43;;;0.50;99.90;;;;;;5091684;28;20448;-78
2023/12/07 06:06:31;;;;;;;0.80;0.80;;;0.50;99.90;;;;;;5091246;28;20460;-77
2023/12/07 06:08:58;;;;;;;1.57;0.77;;;0.40;99.90;;;;;;5091195;28;20444;-78
2023/12/07 06:11:26;;;;;;;1.70;1.40;;;0.40;99.90;;;;;;5091566;28;20448;-78
2023/12/07 06:13:53;;;;;;;4.27;0.90;;;0.40;99.90;;;;;;5091533;28;20447;-77
2023/12/07 06:16:19;;;;;;;0.67;0.53;;;0.40;99.90;;;;;;5091347;28;20484;-77
2023/12/07 06:18:46;;;;;;;1.60;1.03;;;0.40;99.90;;;;;;5091355;28;20484;-78
2023/12/07 06:21:15;;;;;;;0.40;0.40;;;0.40;99.90;;;;;;5091562;28;20456;-78
2023/12/07 06:23:42;;;;;;;2.90;1.70;;;0.30;99.90;;;;;;5091375;28;20530;-77
2023/12/07 06:26:09;;;;;;;0.77;0.50;;;0.30;99.90;;;;;;5091116;28;20460;-78
2023/12/07 06:28:37;;;;;;;0.90;0.70;;;0.30;99.90;;;;;;5091417;28;20937;-77
2023/12/07 06:31:08;;;;;;;3.43;0.90;;;0.30;99.90;;;;;;5095630;28;20432;-78
2023/12/07 06:33:35;;;;;;;1.70;1.00;;;0.30;99.90;;;;;;5103102;28;20452;-78
2023/12/07 06:36:03;;;;;;;2.40;0.73;;;0.30;99.90;;;;;;5104142;28;20488;-78
2023/12/07 06:38:29;;;;;;;1.57;1.43;;;0.30;99.90;;;;;;5104274;28;20547;-78
2023/12/07 06:40:57;;;;;;;1.03;1.00;;;0.30;99.90;;;;;;5106226;28;20444;-78
2023/12/07 06:43:23;;;;;;;3.03;1.13;;;0.30;99.90;;;;;;5099074;28;20451;-78
2023/12/07 06:45:52;;;;;;;1.00;0.67;;;0.30;99.90;;;;;;5092302;28;20464;-78
2023/12/07 06:48:19;;;;;;;1.30;1.20;;;0.30;99.90;;;;;;5078675;28;20447;-78
2023/12/07 06:50:45;;;;;;;0.87;0.60;;;0.20;99.90;;;;;;5077143;28;20449;-78
2023/12/07 06:53:12;;;;;;;2.33;1.37;;;0.30;99.90;;;;;;5077198;28;20440;-78
2023/12/07 06:55:39;;;;;;;1.43;1.10;;;0.30;99.90;;;;;;5076988;28;20476;-78
2023/12/07 06:58:05;;;;;;;1.93;1.73;;;0.30;99.90;;;;;;5077893;28;20441;-78
2023/12/07 07:00:32;;;;;;;2.90;1.50;;;0.20;99.90;;;;;;5077193;28;20445;-78
2023/12/07 07:03:00;;;;;;;1.93;1.10;;;0.20;99.90;;;;;;5079243;28;20448;-78
2023/12/07 07:05:27;;;;;;;3.90;1.13;;;0.30;99.90;;;;;;5077063;28;20433;-78
2023/12/07 07:07:55;;;;;;;3.03;1.33;;;0.30;99.90;;;;;;5077001;28;20436;-78
2023/12/07 07:10:22;;;;;;;0.83;0.70;;;0.30;99.90;;;;;;5076984;28;20444;-78
2023/12/07 07:12:48;;;;;;;2.20;0.80;;;0.30;99.90;;;;;;5076885;28;20504;-78
2023/12/07 07:15:16;;;;;;;1.63;1.47;;;0.30;99.90;;;;;;5078942;28;20449;-78
2023/12/07 07:17:42;;;;;;;4.07;1.13;;;0.30;99.90;;;;;;5077084;28;20556;-78
2023/12/07 07:20:11;;;;;;;7.63;0.80;;;0.20;99.90;;;;;;5077115;28;20784;-78
2023/12/07 07:22:38;;;;;;;1.00;0.60;;;0.20;99.90;;;;;;5076937;28;20445;-78
2023/12/07 07:25:06;;;;;;;0.70;0.70;;;0.10;99.90;;;;;;5076972;28;20792;-78
2023/12/07 07:27:33;;;;;;;0.97;0.83;;;0.10;99.90;;;;;;5076618;28;20469;-78
2023/12/07 07:30:00;;;;;;;1.10;0.90;;;0.10;99.90;;;;;;5077642;28;20515;-79
2023/12/07 07:32:28;;;;;;;2.50;1.33;;;0.20;99.90;;;;;;5078149;28;20433;-79
2023/12/07 07:34:55;;;;;;;3.07;0.80;;;0.10;99.90;;;;;;5077039;28;20818;-79
2023/12/07 07:37:23;;;;;;;1.50;0.90;;;0.10;99.90;;;;;;5077670;28;20551;-79
2023/12/07 07:39:50;;;;;;;1.63;0.47;;;0.20;99.90;;;;;;5077591;28;20789;-79
2023/12/07 07:42:17;;;;;;;5.10;2.00;;;0.10;99.90;;;;;;5078040;28;20460;-79
2023/12/07 07:44:44;;;;;;;0.80;0.60;;;0.20;99.90;;;;;;5077016;28;20441;-79
2023/12/07 07:47:10;;;;;;;3.70;0.73;;;0.20;99.90;;;;;;5076836;28;20461;-79
2023/12/07 07:49:37;;;;;;;1.73;1.00;;;0.20;99.90;;;;;;5077072;28;20444;-79
2023/12/07 07:52:04;;;;;;;1.10;1.10;;;0.00;99.90;;;;;;5076104;28;20930;-79
2023/12/07 07:54:32;;;;;;;1.13;0.77;;;0.00;99.90;;;;;;5076661;28;20441;-79
2023/12/07 07:56:59;;;;;;;1.47;0.80;;;0.00;99.90;;;;;;5076594;28;20491;-79
2023/12/07 07:59:26;;;;;;;3.80;0.90;;;0.10;99.90;;;;;;5075608;28;20447;-79
2023/12/07 08:01:53;;;;;;;2.97;1.03;;;0.10;99.90;;;;;;5076388;28;20449;-79
2023/12/07 08:04:20;;;;;;;4.87;1.90;;;0.10;99.90;;;;;;5077269;28;20444;-79
2023/12/07 08:06:46;;;;;;;0.80;0.70;;;0.20;99.90;;;;;;5076064;28;20851;-79
2023/12/07 08:09:13;;;;;;;0.67;0.67;;;0.10;99.90;;;;;;5076141;28;20460;-79
2023/12/07 08:11:42;;;;;;;2.90;2.10;;;0.10;99.90;;;;;;5075292;28;20441;-79
2023/12/07 08:14:09;;;;;;;1.03;0.97;;;0.20;99.90;;;;;;5075623;28;20449;-79
2023/12/07 08:16:35;;;;;;;0.60;0.60;;;0.30;99.90;;;;;;5075675;28;20483;-79
2023/12/07 08:19:02;;;;;;;2.27;0.87;;;0.30;99.90;;;;;;5075497;28;20441;-79
2023/12/07 08:21:29;;;;;;;2.73;1.03;;;0.40;99.90;;;;;;5075723;28;20437;-78
2023/12/07 08:23:55;;;;;;;2.30;0.87;;;0.30;99.90;;;;;;5075762;28;20441;-79
2023/12/07 08:26:22;;;;;;;1.53;1.43;;;0.40;99.90;;;;;;5075886;28;20469;-79
2023/12/07 08:28:53;;;;;;;2.00;0.90;;;0.40;99.90;;;;;;5076025;28;20808;-79
2023/12/07 08:31:20;;;;;;;2.90;1.53;;;0.40;99.90;;;;;;5076322;28;20796;-79
2023/12/07 08:33:47;;;;;;;2.77;1.80;;;0.50;99.90;;;;;;5075688;28;20468;-79
2023/12/07 08:36:13;;;;;;;1.37;1.27;;;0.50;99.90;;;;;;5075202;28;20488;-79
2023/12/07 08:38:40;;;;;;;13.43;1.10;;;0.60;99.90;;;;;;5075612;28;20452;-79
2023/12/07 08:41:07;;;;;;;3.23;1.37;;;0.60;99.90;;;;;;5075920;28;20449;-79
2023/12/07 08:43:33;;;;;;;2.70;1.20;;;0.60;99.90;;;;;;5075685;28;20433;-78
2023/12/07 08:46:03;;;;;;;0.83;0.83;;;0.70;99.90;;;;;;5075641;28;20465;-78
2023/12/07 08:48:30;;;;;;;2.00;0.97;;;0.70;99.90;;;;;;5075381;28;20502;-78
2023/12/07 08:50:56;;;;;;;1.43;1.33;;;0.80;99.90;;;;;;5078308;28;20795;-79
2023/12/07 08:53:23;;;;;;;2.70;2.43;;;0.80;99.90;;;;;;5076198;28;20455;-79
2023/12/07 08:55:50;;;;;;;0.50;0.50;;;0.90;99.90;;;;;;5075693;28;20461;-79
2023/12/07 08:58:17;;;;;;;0.40;0.40;;;0.90;99.90;;;;;;5080524;28;20449;-79
2023/12/07 09:00:44;;;;;;;1.77;1.67;;;1.00;99.90;;;;;;5075834;28;20464;-79
2023/12/07 09:03:12;;;;;;;2.33;1.40;;;1.10;99.90;;;;;;5075436;28;20421;-79
2023/12/07 09:05:39;;;;;;;1.83;1.07;;;1.20;99.90;;;;;;5076015;28;20447;-79
2023/12/07 09:08:06;;;;;;;1.07;0.77;;;1.30;99.90;;;;;;5075801;28;20445;-79
2023/12/07 09:10:33;;;;;;;1.97;1.40;;;1.40;99.90;;;;;;5075016;28;20455;-79
2023/12/07 09:13:00;;;;;;;2.07;1.13;;;1.40;99.90;;;;;;5075748;28;20452;-79
2023/12/07 09:15:26;;;;;;;3.50;1.17;;;1.50;99.90;;;;;;5076332;28;20535;-77
2023/12/07 09:17:53;;;;;;;1.17;1.17;;;1.60;99.90;;;;;;5075486;28;20488;-78
2023/12/07 09:20:21;;;;;;;1.17;0.60;;;1.80;99.90;;;;;;5075550;28;20448;-78
2023/12/07 09:22:48;;;;;;;1.30;1.20;;;1.90;99.90;;;;;;5075732;28;20445;-78
2023/12/07 09:25:16;;;;;;;3.53;1.60;;;2.00;99.90;;;;;;5078696;28;20508;-77
2023/12/07 09:27:43;;;;;;;0.80;0.80;;;2.10;99.90;;;;;;5077275;28;20468;-77
2023/12/07 09:30:11;;;;;;;4.23;1.17;;;2.20;99.90;;;;;;5073802;28;20957;-77
2023/12/07 09:32:39;;;;;;;2.60;1.20;;;2.30;99.90;;;;;;5074134;28;20448;-78
2023/12/07 09:35:06;;;;;;;1.27;1.03;;;2.40;99.90;;;;;;5073390;28;20994;-78
2023/12/07 09:37:35;;;;;;;1.67;0.90;;;2.60;99.90;;;;;;5073598;28;20534;-77
2023/12/07 09:40:04;;;;;;;2.13;1.43;;;3.00;99.90;;;;;;5073822;28;20441;-77
2023/12/07 09:42:31;;;;;;;1.63;0.80;;;3.70;99.90;;;;;;5074103;28;20420;-77
2023/12/07 09:44:58;;;;;;;1.73;1.63;;;4.60;99.90;;;;;;5074202;28;20452;-77
2023/12/07 09:47:26;;;;;;;2.77;1.07;;;5.60;99.90;;;;;;5074367;28;20457;-77
2023/12/07 09:49:53;;;;;;;1.53;1.00;;;6.80;99.90;;;;;;5074084;28;20441;-77
2023/12/07 09:52:22;;;;;;;2.10;1.80;;;8.00;99.90;;;;;;5074299;28;20437;-77
2023/12/07 09:54:51;;;;;;;1.90;1.00;;;8.90;99.90;;;;;;5074654;28;20452;-78
2023/12/07 09:57:18;;;;;;;2.97;1.43;;;10.10;99.90;;;;;;5074983;28;20480;-78
2023/12/07 09:59:45;;;;;;;4.60;1.07;;;11.40;99.90;;;;;;5075072;28;20445;-78
2023/12/07 10:02:11;;;;;;;5.83;1.27;;;12.30;99.90;;;;;;5074487;28;20448;-77
2023/12/07 10:04:38;;;;;;;1.73;1.10;;;12.60;99.90;;;;;;5074351;28;20938;-77
2023/12/07 10:07:08;;;;;;;2.00;1.20;;;12.10;99.90;;;;;;5074558;28;20476;-78
2023/12/07 10:09:35;;;;;;;3.90;0.80;;;11.20;99.90;;;;;;5074848;28;20487;-78
2023/12/07 10:12:05;;;;;;;1.57;1.40;;;10.00;99.90;;;;;;5074957;28;20516;-78
2023/12/07 10:14:32;;;;;;;2.10;1.10;;;8.90;99.90;;;;;;5074792;28;20807;-78
2023/12/07 10:16:58;;;;;;;6.57;1.97;;;7.80;99.90;;;;;;5074229;28;20819;-77
2023/12/07 10:19:27;;;;;;;0.83;0.80;;;7.10;99.90;;;;;;5074808;28;20444;-78
2023/12/07 10:21:54;;;;;;;1.07;0.93;;;6.50;99.90;;;;;;5076185;28;20450;-78
2023/12/07 10:24:23;;;;;;;1.27;0.97;;;6.20;99.90;;;;;;5078864;28;20448;-78
2023/12/07 10:26:50;;;;;;;1.00;0.97;;;6.00;99.90;;;;;;5079122;28;20457;-78
2023/12/07 10:29:23;;;;;;;1.00;0.90;;;5.90;99.90;;;;;;5079444;28;20453;-78
2023/12/07 10:31:50;;;;;;;3.03;1.63;;;5.70;99.90;;;;;;5079161;28;20488;-78
2023/12/07 10:34:20;;;;;;;1.23;1.13;;;5.60;99.90;;;;;;5078766;28;20451;-78
2023/12/07 10:36:47;;;;;;;0.80;0.80;;;5.40;99.90;;;;;;5078415;28;20488;-78
2023/12/07 10:39:14;;;;;;;2.20;0.90;;;5.40;99.90;;;;;;5078788;28;20445;-78
2023/12/07 10:41:44;;;;;;;1.63;1.53;;;5.20;99.90;;;;;;5078695;28;20448;-78
2023/12/07 10:44:14;;;;;;;3.77;1.40;;;5.10;99.90;;;;;;5078765;28;20454;-78
2023/12/07 10:46:43;;;;;;;1.57;1.10;;;4.90;99.90;;;;;;5078612;28;20457;-78
2023/12/07 10:49:18;;;;;;;1.57;0.60;;;4.90;99.90;;;;;;5079460;28;20445;-78
2023/12/07 10:51:50;;;;;;;3.30;1.57;;;4.80;99.90;;;;;;5084399;28;20433;-78
2023/12/07 10:54:22;;;;;;;1.67;1.27;;;4.80;99.90;;;;;;5079262;28;20906;-78
2023/12/07 10:56:50;;;;;;;1.00;0.90;;;4.70;99.90;;;;;;5078728;28;20492;-78
2023/12/07 10:59:18;;;;;;;0.90;0.90;;;4.70;99.90;;;;;;5079188;28;20461;-78
2023/12/07 11:01:48;;;;;;;1.13;1.13;;;4.50;99.90;;;;;;5078786;28;20448;-78
2023/12/07 11:04:15;;;;;;;1.63;1.10;;;4.50;99.90;;;;;;5078909;28;20444;-78
2023/12/07 11:06:45;;;;;;;2.00;0.70;;;4.50;99.90;;;;;;5078767;28;20460;-78
2023/12/07 11:09:16;;;;;;;0.50;0.50;;;4.50;99.90;;;;;;5078903;28;20437;-78
2023/12/07 11:11:47;;;;;;;2.00;0.70;;;4.40;99.90;;;;;;5078724;28;20437;-78
2023/12/07 11:14:15;;;;;;;0.40;0.40;;;4.30;99.90;;;;;;5078682;28;20421;-78
2023/12/07 11:16:44;;;;;;;2.03;1.07;;;4.30;99.90;;;;;;5078101;28;20834;-78
2023/12/07 11:19:46;;;;;;;1.33;1.17;;;4.40;99.90;;;;;;5077832;28;20456;-78
2023/12/07 11:22:14;;;;;;;1.20;1.10;;;4.40;99.90;;;;;;5077562;28;20952;-78
2023/12/07 11:24:54;;;;;;;2.00;0.70;;;4.30;99.90;;;;;;5078055;28;20451;-78
2023/12/07 11:27:22;;;;;;;1.10;1.00;;;4.40;99.90;;;;;;5078237;28;20468;-78
2023/12/07 11:29:49;;;;;;;1.43;0.60;;;4.30;99.90;;;;;;5078133;28;20456;-78
2023/12/07 11:32:16;;;;;;;1.50;1.40;;;4.40;99.90;;;;;;5078029;28;20437;-78
2023/12/07 11:34:43;;;;;;;6.67;1.20;;;4.50;99.90;;;;;;5077510;28;20437;-78
2023/12/07 11:37:15;;;;;;;0.87;0.87;;;4.50;99.90;;;;;;5079053;28;20522;-82
2023/12/07 11:39:43;;;;;;;1.77;0.93;;;4.50;99.90;;;;;;5076530;28;20433;-79
2023/12/07 11:42:12;;;;;;;3.70;1.27;;;4.40;99.90;;;;;;5074987;28;20461;-78
2023/12/07 11:44:40;;;;;;;4.63;1.33;;;4.40;99.90;;;;;;5076829;28;20437;-78
2023/12/07 11:47:07;;;;;;;2.07;1.90;;;4.40;99.90;;;;;;5075968;28;20966;-78
2023/12/07 11:49:33;;;;;;;1.97;0.97;;;4.30;99.90;;;;;;5076769;28;20515;-78
2023/12/07 11:51:59;;;;;;;1.10;0.90;;;4.30;99.90;;;;;;5077162;28;20458;-78
2023/12/07 11:54:28;;;;;;;0.83;0.77;;;4.20;99.90;;;;;;5077482;28;20848;-78
2023/12/07 11:56:55;;;;;;;2.77;1.33;;;4.20;99.90;;;;;;5076916;28;20471;-78
2023/12/07 11:59:22;;;;;;;2.50;1.97;;;4.20;99.90;;;;;;5077070;28;20484;-78
2023/12/07 12:01:49;;;;;;;0.90;0.80;;;4.10;99.90;;;;;;5077308;28;20440;-78
2023/12/07 12:04:16;;;;;;;8.03;2.30;;;4.00;99.90;;;;;;5076956;28;20440;-78
2023/12/07 12:06:44;;;;;;;0.90;0.90;;;4.00;99.90;;;;;;5077069;28;20884;-78
2023/12/07 12:09:12;;;;;;;0.70;0.70;;;4.00;99.90;;;;;;5076990;28;20433;-78
2023/12/07 12:11:46;;;;;;;0.90;0.90;;;3.90;99.90;;;;;;5076678;28;20453;-78
2023/12/07 12:14:13;;;;;;;0.87;0.60;;;3.80;99.90;;;;;;5076728;28;20817;-78
2023/12/07 12:16:40;;;;;;;0.70;0.60;;;3.70;99.90;;;;;;5075461;28;20465;-78
2023/12/07 12:19:07;;;;;;;2.17;0.70;;;3.70;99.90;;;;;;5075261;28;20988;-78
2023/12/07 12:21:35;;;;;;;0.70;0.70;;;3.70;99.90;;;;;;5076031;28;20438;-78
2023/12/07 12:24:01;;;;;;;0.80;0.40;;;3.70;99.90;;;;;;5076067;28;20516;-78
2023/12/07 12:26:29;;;;;;;0.87;0.87;;;3.70;99.90;;;;;;5076076;28;20456;-78
2023/12/07 12:28:57;;;;;;;2.00;1.07;;;3.70;99.90;;;;;;5076204;28;20444;-78
2023/12/07 12:31:24;;;;;;;0.50;0.50;;;3.80;99.90;;;;;;5078362;28;20436;-78
2023/12/07 12:33:51;;;;;;;0.70;0.70;;;3.80;99.90;;;;;;5082672;28;20441;-78
2023/12/07 12:36:23;;;;;;;0.70;0.40;;;3.90;99.90;;;;;;5081376;28;20513;-78
2023/12/07 12:38:50;;;;;;;0.40;0.40;;;3.80;99.90;;;;;;5084887;28;20555;-78
2023/12/07 12:41:19;;;;;;;0.40;0.40;;;3.90;99.90;;;;;;5082108;28;20440;-78
2023/12/07 12:43:47;;;;;;;0.77;0.77;;;3.80;99.90;;;;;;5082367;28;20421;-78
2023/12/07 12:46:16;;;;;;;1.80;1.07;;;3.80;99.90;;;;;;5081361;28;20464;-78
2023/12/07 12:48:57;;;;;;;1.30;1.00;;;3.80;99.90;;;;;;5080466;28;20445;-78
2023/12/07 12:51:25;;;;;;;0.50;0.50;;;3.80;99.90;;;;;;5079408;28;20929;-78
2023/12/07 12:53:53;;;;;;;0.80;0.80;;;3.80;99.90;;;;;;5076731;28;20631;-78
2023/12/07 12:56:21;;;;;;;0.70;0.53;;;3.80;99.90;;;;;;5075381;28;20456;-78
2023/12/07 12:58:48;;;;;;;2.03;1.43;;;3.80;99.90;;;;;;5075690;28;20477;-78